Ariel, WA

4:29 PM PDT on September 01, 2014 (GMT -0700)
West Yale Valley | Change Station
CLOSE
Current Station
Personal Weather Station
Location: Ariel, WA
Elevation: 455 ft
Nearby Weather Stations

Elev 455 ft 46.00 °N, 122.40 °W | Updated 9 minutes ago

Partly Cloudy
Partly Cloudy
77.5 °F
Feels Like 79 °F
N
1.0
Wind Variable Wind from West
Gusts 7.0 mph

Today
High -- | Low -- °F
--% Chance of Precip.
Yesterday
High -- | Low -- °F
Precip. -- in
6:30 AM 7:47 PM
Waxing Crescent, 45% visible
Pressure 30.04 in
Visibility 10.0 miles
Clouds Clear
Heat Index 79 °F
Dew Point 58 °F
Humidity 52%
Rainfall 0.00 in
Snow Depth 0 in
UV 4 out of 12
Pollen 3.40 out of 12
Air Quality Not available.
Flu Activity Not available.
METAR KKLS 012315Z AUTO 27004KT 10SM CLR 26/12 A3004 RMK AO1

More Conditions Fewer Conditions

Pressure 30.04 in
Visibility 10.0 miles
Clouds Clear
Heat Index 79 °F
Dew Point 58 °F
Humidity 52%
Rainfall 0.00 in
Snow Depth 0 in
UV 4 out of 12
Pollen 3.40 out of 12
Air Quality Not available.
Flu Activity Not available.
METAR KKLS 012315Z AUTO 27004KT 10SM CLR 26/12 A3004 RMK AO1

More Conditions Fewer Conditions

10-Day Weather Forecast

Almanac

Astronomy

Sep. 01, 2014 Rise Set
Actual Time 6:30 AM PDT 7:47 PM PDT
Civil Twilight 5:59 AM PDT 8:18 PM PDT
Nautical Twilight 5:22 AM PDT 8:55 PM PDT
Astronomical Twilight 4:42 AM PDT 9:35 PM PDT
Moon 1:43 PM PDT 11:31 PM PDT
Length of Visible Light 14h 18m
Length of Day
13h 17m
Tomorrow will be 3m 9s shorter.
Waxing Crescent, 45% of the Moon is Illuminated
Today
Waxing Crescent
Sep 2
First Quarter
Sep 8
Full
Sep 15
Last Quarter
Sep 24
New

Today's Extremes

State Highs State Lows

Community

WunderPhotos

Upload Photos

1,749,430 photos uploaded!

Nearby

Snow Depth

Station Depth Elevation
Swift Creek 0 in 3770 ft
Lone Pine 0 in 3800 ft
Surprise Lakes 0 in 4250 ft
Potato Hill 0 in 4500 ft
Green Lake 0 in 6000 ft

Earthquake Activity

City Distance Mag. Time & Date
No recent earthquake activity has been reported nearby.
Minimum magnitude displayed is 2.5.

Coastal Water Temperatures

Place Temperature
No Stations Reporting

Nearby Weather Stations